04V

Saguache Municipal Airport

Saguache, Colorado, USA
METAR K04V 172312Z AUTO 00000KT 10SM CLR 06/M07 A3002 RMK AO2
Observed Flight Rules
Nov-17 @ 23:12 UTC (25 minutes ago) Visual Flight Rules
Visibility Clouds
10 miles
  • Clear skies
Temperatures Readings
Current 6°C / 43°F
Dewpoint -7°C / 19°F
Humidity 39%
Altimeter 30.02" Hg
Pressure 1017 hPa
Elevation 2385
METAR K04V 172312Z AUTO 00000KT 10SM CLR 06/M07 A3002 RMK AO2
Observed Flight Rules
Nov-17 @ 23:12 UTC
(25 minutes ago)
VFR
Clouds
  • Clear skies
Temperature Dewpoint
6°C / 43°F -7°C / 19°F
Humidity Altimeter Pressure
39% 30.02" Hg 1017 hPa